Time;durP1;ratioP1;P1;durP2;ratioP2;P2;SDS_P1;SDS_P2;PMS_P1;PMS_P2;Temp;Humidity;BMP_temperature;BMP_pressure;BME280_temperature;BME280_humidity;BME280_pressure;Samples;Min_cycle;Max_cycle;Signal;HPM_P1;HPM_P2
2021/12/24 00:00:56;;;;;;;54.43;27.70;;;;;;;-0.77;97.29;100008.81;5071791;28;20212;-72
2021/12/24 00:03:24;;;;;;;64.23;28.10;;;;;;;-0.79;97.18;100015.47;5072028;28;20215;-72
2021/12/24 00:05:51;;;;;;;56.13;27.63;;;;;;;-0.80;97.16;100022.19;5091152;28;20210;-72
2021/12/24 00:08:18;;;;;;;60.40;26.63;;;;;;;-0.81;97.22;100009.56;5091928;28;20199;-72
2021/12/24 00:10:49;;;;;;;56.67;29.40;;;;;;;-0.82;97.15;100002.81;5091468;28;20231;-72
2021/12/24 00:13:17;;;;;;;62.53;30.23;;;;;;;-0.83;97.18;100011.19;5091399;28;20763;-72
2021/12/24 00:15:56;;;;;;;62.13;27.67;;;;;;;-0.89;97.36;100000.97;5091351;28;20574;-71
2021/12/24 00:18:37;;;;;;;63.40;31.17;;;;;;;-0.89;97.51;100011.03;5091183;28;20211;-72
2021/12/24 00:37:48;;;;;;;62.67;30.87;;;;;;;-1.08;97.39;100015.59;5045685;28;20205;-71
2021/12/24 00:40:18;;;;;;;61.47;28.67;;;;;;;-1.12;97.71;100008.78;5048475;28;20275;-72
2021/12/24 00:42:48;;;;;;;67.97;32.70;;;;;;;-1.15;97.50;99993.59;5056401;28;20203;-71
2021/12/24 00:45:17;;;;;;;78.57;33.93;;;;;;;-1.20;97.67;99990.13;5071083;28;20212;-72
2021/12/24 00:47:45;;;;;;;78.83;33.90;;;;;;;-1.34;97.90;99970.44;5071246;28;20214;-73
2021/12/24 00:50:18;;;;;;;74.23;32.63;;;;;;;-1.43;98.28;99952.63;5086850;28;20202;-72
2021/12/24 00:52:48;;;;;;;60.73;30.97;;;;;;;-1.30;98.38;99983.16;5091795;28;20754;-72
2021/12/24 00:55:16;;;;;;;73.20;32.23;;;;;;;-1.37;98.23;99971.22;5091262;28;20196;-72
2021/12/24 00:57:50;;;;;;;60.07;31.70;;;;;;;-1.36;98.05;99972.09;5091604;28;20206;-71
2021/12/24 01:00:20;;;;;;;69.87;30.47;;;;;;;-1.38;97.93;99964.47;5091369;28;20203;-72
2021/12/24 01:02:49;;;;;;;70.33;33.43;;;;;;;-1.42;98.05;99950.13;5091507;28;20277;-71
2021/12/24 01:05:18;;;;;;;65.50;32.83;;;;;;;-1.49;97.80;99935.72;5091340;28;20207;-72
2021/12/24 01:07:46;;;;;;;82.03;37.90;;;;;;;-1.50;97.82;99939.03;5091574;28;20207;-71
2021/12/24 01:10:15;;;;;;;75.90;34.90;;;;;;;-1.50;97.85;99943.19;5091076;28;20234;-71
2021/12/24 01:12:42;;;;;;;73.83;36.90;;;;;;;-1.64;98.03;99935.28;5091333;28;20199;-72
2021/12/24 01:15:09;;;;;;;73.27;35.30;;;;;;;-1.52;98.55;99945.69;5091172;28;20199;-71
2021/12/24 01:17:42;;;;;;;70.37;32.50;;;;;;;-1.74;98.91;99908.19;5091158;28;20196;-71
2021/12/24 01:20:21;;;;;;;72.37;35.00;;;;;;;-1.58;99.02;99929.59;5080367;28;20691;-72
2021/12/24 01:25:39;;;;;;;67.93;33.33;;;;;;;-1.71;100.00;99940.94;5085838;28;20210;-71
2021/12/24 01:39:22;;;;;;;79.53;34.93;;;;;;;-1.79;100.00;99904.72;5094556;28;20629;-71
2021/12/24 01:44:33;;;;;;;75.40;34.90;;;;;;;-1.84;100.00;99881.16;5094558;28;20348;-71
2021/12/24 01:47:02;;;;;;;71.03;34.03;;;;;;;-1.92;100.00;99848.28;5094365;28;20198;-71
2021/12/24 01:49:29;;;;;;;74.27;35.50;;;;;;;-1.71;100.00;99865.56;5094178;28;20201;-71
2021/12/24 01:51:57;;;;;;;70.00;33.00;;;;;;;-1.72;100.00;99858.84;5094572;28;20191;-71
2021/12/24 01:54:26;;;;;;;65.43;33.07;;;;;;;-1.90;99.62;99830.72;5094509;28;20650;-71
2021/12/24 01:56:53;;;;;;;68.57;34.30;;;;;;;-1.78;100.00;99851.16;5085874;28;20192;-71
2021/12/24 01:59:21;;;;;;;66.33;32.27;;;;;;;-1.71;99.89;99873.09;5094272;28;20223;-71
2021/12/24 02:01:49;;;;;;;70.57;33.30;;;;;;;-1.81;100.00;99841.84;5094123;28;20199;-71
2021/12/24 02:04:17;;;;;;;68.60;32.67;;;;;;;-1.73;100.00;99862.16;5094172;28;20631;-71
2021/12/24 02:06:44;;;;;;;65.83;32.13;;;;;;;-1.77;100.00;99852.84;5093764;28;20210;-71
2021/12/24 02:09:12;;;;;;;65.90;31.93;;;;;;;-1.73;100.00;99839.53;5094128;28;20588;-72
2021/12/24 02:11:41;;;;;;;76.60;31.97;;;;;;;-1.73;100.00;99837.88;5093769;28;20231;-72
2021/12/24 02:14:09;;;;;;;73.97;33.00;;;;;;;-1.69;99.57;99832.13;5093989;28;20233;-72
2021/12/24 02:17:06;;;;;;;74.10;32.77;;;;;;;-1.70;99.23;99830.44;5093302;28;20203;-71
2021/12/24 02:30:27;;;;;;;63.17;30.00;;;;;;;-1.79;99.21;99834.38;5093468;28;20244;-71
2021/12/24 02:32:54;;;;;;;61.17;30.33;;;;;;;-1.77;99.28;99832.72;5092785;28;20199;-71
2021/12/24 02:35:21;;;;;;;61.27;30.47;;;;;;;-1.75;99.32;99808.50;5092903;28;20583;-72
2021/12/24 02:37:50;;;;;;;61.97;30.57;;;;;;;-1.75;99.26;99803.50;5093307;28;20584;-72
2021/12/24 02:40:18;;;;;;;57.83;30.97;;;;;;;-1.74;99.28;99805.16;5093334;28;20621;-72
2021/12/24 02:42:49;;;;;;;61.27;31.00;;;;;;;-1.74;99.10;99805.16;5093444;28;20203;-72
2021/12/24 02:45:16;;;;;;;66.60;31.30;;;;;;;-1.74;99.04;99808.53;5093190;28;20290;-71
2021/12/24 02:47:57;;;;;;;71.63;31.30;;;;;;;-1.80;98.69;99802.50;5093158;28;20204;-71
2021/12/24 02:55:54;;;;;;;57.77;29.97;;;;;;;-1.76;99.13;99810.16;5093176;28;20272;-72
2021/12/24 02:58:21;;;;;;;58.60;27.97;;;;;;;-1.77;99.24;99822.69;5092971;28;20199;-71
2021/12/24 03:00:48;;;;;;;65.47;29.57;;;;;;;-1.81;99.50;99820.94;5092938;28;20203;-71
2021/12/24 03:03:15;;;;;;;57.60;28.03;;;;;;;-1.80;99.55;99815.06;5092805;28;20202;-71
2021/12/24 03:05:42;;;;;;;67.03;29.73;;;;;;;-1.79;99.45;99814.25;5092957;28;20728;-71
2021/12/24 03:08:11;;;;;;;52.23;28.90;;;;;;;-1.84;99.57;99801.56;5092747;28;20689;-71
2021/12/24 03:10:37;;;;;;;57.00;30.80;;;;;;;-1.78;99.20;99808.44;5092550;28;20219;-72
2021/12/24 03:13:05;;;;;;;60.87;30.47;;;;;;;-1.80;99.46;99810.03;5092719;28;20691;-72
2021/12/24 03:15:32;;;;;;;65.03;29.53;;;;;;;-1.78;99.50;99818.50;5092884;28;20585;-71
2021/12/24 03:18:00;;;;;;;54.13;28.33;;;;;;;-1.80;99.71;99830.16;5092797;28;20210;-71
2021/12/24 03:20:32;;;;;;;70.33;30.60;;;;;;;-1.76;99.62;99819.38;5087208;28;20276;-71
2021/12/24 03:23:08;;;;;;;63.93;30.87;;;;;;;-1.79;99.58;99806.72;5092616;28;20685;-71
2021/12/24 03:25:38;;;;;;;57.77;28.90;;;;;;;-1.81;99.55;99810.88;5092813;28;20199;-71
2021/12/24 03:28:05;;;;;;;48.07;26.67;;;;;;;-1.81;99.48;99806.66;5092463;28;20192;-71
2021/12/24 03:30:33;;;;;;;59.10;29.97;;;;;;;-1.79;98.88;99786.63;5092393;28;20623;-71
2021/12/24 03:33:00;;;;;;;56.83;29.70;;;;;;;-1.80;98.82;99773.22;5092501;28;20203;-72
2021/12/24 03:35:27;;;;;;;52.63;28.43;;;;;;;-1.85;99.10;99794.88;5092150;28;20206;-71
2021/12/24 03:37:54;;;;;;;55.53;27.33;;;;;;;-1.89;99.33;99782.19;5092408;28;20214;-71
2021/12/24 03:40:21;;;;;;;57.83;29.73;;;;;;;-1.92;99.39;99779.59;5092163;28;20691;-71
2021/12/24 03:42:49;;;;;;;64.40;29.87;;;;;;;-1.98;99.59;99786.97;5092414;28;20195;-71
2021/12/24 03:45:26;;;;;;;58.30;28.60;;;;;;;-1.96;99.65;99785.34;5092086;28;20578;-71
2021/12/24 03:47:57;;;;;;;62.60;30.77;;;;;;;-1.96;99.36;99775.28;5091558;28;20191;-71
2021/12/24 03:50:38;;;;;;;52.83;30.03;;;;;;;-1.97;99.41;99771.09;5092123;28;20663;-72
2021/12/24 03:54:55;;;;;;;65.17;30.10;;;;;;;-1.98;99.19;99771.91;5084738;28;20575;-71
2021/12/24 03:55:51;;;;;;;58.33;29.43;;;;;;;-1.96;99.20;99770.25;5091832;28;20195;-71
2021/12/24 03:58:19;;;;;;;61.27;30.57;;;;;;;-2.01;98.96;99761.78;5091873;28;20198;-71
2021/12/24 04:00:46;;;;;;;57.50;29.97;;;;;;;-2.22;99.10;99732.78;5091819;28;20225;-71
2021/12/24 04:03:13;;;;;;;64.07;31.30;;;;;;;-2.08;99.44;99754.91;5091831;28;20195;-71
2021/12/24 04:05:40;;;;;;;65.67;30.07;;;;;;;-2.07;99.74;99752.44;5091628;28;20206;-71
2021/12/24 04:08:07;;;;;;;65.17;28.87;;;;;;;-2.12;99.60;99752.31;5091876;28;20210;-71
2021/12/24 04:10:39;;;;;;;61.07;29.97;;;;;;;-2.10;99.56;99746.47;5091489;28;20217;-70
2021/12/24 04:13:07;;;;;;;62.77;28.30;;;;;;;-2.16;99.80;99737.97;5092061;28;20191;-71
2021/12/24 04:15:35;;;;;;;54.60;28.97;;;;;;;-2.20;99.80;99731.16;5091651;28;20195;-71
2021/12/24 04:18:02;;;;;;;65.73;29.80;;;;;;;-2.26;99.93;99710.91;5091747;28;20195;-71
2021/12/24 04:25:58;;;;;;;59.43;30.23;;;;;;;-2.26;100.00;99725.16;5091354;28;20590;-71
2021/12/24 04:28:25;;;;;;;68.13;31.47;;;;;;;-2.31;100.00;99717.50;5090798;28;20203;-70
2021/12/24 04:30:54;;;;;;;60.33;30.20;;;;;;;-2.35;100.00;99720.72;5090877;28;20191;-71
2021/12/24 04:33:26;;;;;;;57.47;28.70;;;;;;;-2.35;100.00;99712.34;5091011;28;20221;-71
2021/12/24 04:36:10;;;;;;;64.77;30.30;;;;;;;-2.31;100.00;99707.44;5090490;28;20237;-71
2021/12/24 04:39:00;;;;;;;55.57;29.70;;;;;;;-2.35;99.96;99715.69;5090696;28;20292;-71
2021/12/24 04:52:51;;;;;;;92.70;36.93;;;;;;;-2.51;100.00;99708.56;5087638;28;20206;-70
2021/12/24 05:03:36;;;;;;;108.83;45.37;;;;;;;-2.61;100.00;99716.66;5090246;28;20242;-70
2021/12/24 05:06:12;;;;;;;98.33;41.87;;;;;;;-2.69;100.00;99721.50;5095011;28;20639;-71
2021/12/24 05:08:49;;;;;;;103.23;43.80;;;;;;;-2.68;100.00;99729.84;5089351;28;20230;-71
2021/12/24 05:11:17;;;;;;;100.97;47.27;;;;;;;-2.68;100.00;99729.84;5094939;28;20602;-70
2021/12/24 05:13:44;;;;;;;111.33;49.40;;;;;;;-2.71;100.00;99727.25;5095146;28;20559;-70
2021/12/24 05:16:21;;;;;;;130.47;54.77;;;;;;;-2.72;100.00;99728.09;5094895;28;20209;-70
2021/12/24 05:21:32;;;;;;;118.40;51.17;;;;;;;-2.69;100.00;99715.63;5094848;28;20294;-71
2021/12/24 05:21:54;;;;;;;107.37;46.70;;;;;;;-2.65;100.00;99709.88;5092716;28;20229;-71
2021/12/24 05:24:23;;;;;;;119.03;43.63;;;;;;;-2.67;100.00;99711.50;5095090;28;20274;-70
2021/12/24 05:26:52;;;;;;;91.60;39.23;;;;;;;-2.67;100.00;99717.34;5094746;28;20200;-70
2021/12/24 05:29:19;;;;;;;78.73;38.30;;;;;;;-2.76;100.00;99696.19;5094748;28;20548;-70
2021/12/24 05:31:46;;;;;;;77.40;36.90;;;;;;;-2.68;100.00;99715.66;5094816;28;20199;-70
2021/12/24 05:34:17;;;;;;;84.40;37.73;;;;;;;-2.69;100.00;99713.97;5094600;28;20667;-71
2021/12/24 05:36:45;;;;;;;78.03;38.57;;;;;;;-2.65;100.00;99724.94;5094708;28;20191;-70
2021/12/24 05:39:12;;;;;;;89.63;39.70;;;;;;;-2.64;100.00;99734.16;5094358;28;20199;-70
2021/12/24 05:41:39;;;;;;;78.87;36.60;;;;;;;-2.68;100.00;99724.81;5094395;28;20203;-71
2021/12/24 05:44:09;;;;;;;83.07;36.00;;;;;;;-2.63;100.00;99720.81;5094312;28;20196;-71
2021/12/24 05:46:37;;;;;;;83.73;36.33;;;;;;;-2.65;100.00;99730.78;5094558;28;20249;-70
2021/12/24 05:49:05;;;;;;;101.73;42.00;;;;;;;-2.65;100.00;99734.97;5094368;28;20626;-70
2021/12/24 05:51:34;;;;;;;95.07;42.57;;;;;;;-2.68;100.00;99750.78;5094346;28;20205;-70
2021/12/24 05:54:01;;;;;;;95.03;42.93;;;;;;;-2.66;100.00;99743.31;5094297;28;20671;-70
2021/12/24 05:56:28;;;;;;;103.23;45.80;;;;;;;-2.67;100.00;99742.44;5094173;28;20249;-70
2021/12/24 05:58:55;;;;;;;100.23;42.17;;;;;;;-2.69;100.00;99744.06;5094268;28;20213;-70
2021/12/24 06:01:23;;;;;;;95.20;44.33;;;;;;;-2.70;100.00;99744.03;5093839;28;20691;-70
2021/12/24 06:03:50;;;;;;;99.73;44.13;;;;;;;-2.70;100.00;99741.50;5093905;28;20195;-70
2021/12/24 06:06:17;;;;;;;96.50;45.23;;;;;;;-2.68;100.00;99740.75;5093859;28;20213;-70
2021/12/24 06:08:45;;;;;;;93.03;41.33;;;;;;;-2.66;100.00;99719.06;5094023;28;20199;-70
2021/12/24 06:11:12;;;;;;;98.03;39.43;;;;;;;-2.67;100.00;99719.00;5093261;28;20223;-69
2021/12/24 06:13:40;;;;;;;76.57;39.10;;;;;;;-2.66;100.00;99728.25;5093662;28;20210;-69
2021/12/24 06:16:09;;;;;;;86.17;37.90;;;;;;;-2.68;100.00;99735.72;5094052;28;20192;-70
2021/12/24 06:18:38;;;;;;;110.57;40.40;;;;;;;-2.68;100.00;99728.19;5093503;28;20207;-70
2021/12/24 06:21:06;;;;;;;87.37;41.50;;;;;;;-2.69;100.00;99725.66;5093833;28;20580;-71
2021/12/24 06:23:34;;;;;;;105.07;44.10;;;;;;;-2.66;100.00;99728.25;5093433;28;20218;-70
2021/12/24 06:26:04;;;;;;;113.17;50.53;;;;;;;-2.69;100.00;99729.03;5093872;28;20667;-69
2021/12/24 06:28:30;;;;;;;101.73;50.57;;;;;;;-2.71;100.00;99729.75;5083838;28;20217;-70
2021/12/24 06:30:58;;;;;;;114.20;51.80;;;;;;;-2.73;100.00;99716.34;5093359;28;20202;-70
2021/12/24 06:33:25;;;;;;;116.10;51.50;;;;;;;-2.71;100.00;99730.63;5093085;28;20781;-69
2021/12/24 06:35:54;;;;;;;109.67;47.37;;;;;;;-2.71;100.00;99729.75;5093420;28;20203;-69
2021/12/24 06:38:21;;;;;;;104.80;45.03;;;;;;;-2.69;100.00;99725.66;5093237;28;20686;-70
2021/12/24 06:40:48;;;;;;;87.27;43.40;;;;;;;-2.71;100.00;99717.22;5093182;28;20213;-69
2021/12/24 06:43:16;;;;;;;84.50;40.83;;;;;;;-2.71;100.00;99717.22;5093187;28;20199;-69
2021/12/24 06:45:44;;;;;;;93.10;37.00;;;;;;;-2.68;100.00;99714.78;5093047;28;20203;-69
2021/12/24 06:48:11;;;;;;;71.77;37.23;;;;;;;-2.66;100.00;99703.16;5093251;28;20278;-69
2021/12/24 06:50:38;;;;;;;77.10;36.40;;;;;;;-2.68;100.00;99689.69;5093052;28;20788;-69
2021/12/24 06:53:05;;;;;;;73.90;36.87;;;;;;;-2.61;100.00;99699.09;5093013;28;20200;-69
2021/12/24 06:55:32;;;;;;;72.53;35.20;;;;;;;-2.65;100.00;99694.84;5093040;28;20195;-69
2021/12/24 06:57:58;;;;;;;71.77;35.27;;;;;;;-2.57;100.00;99702.53;5093049;28;20199;-69
2021/12/24 07:00:27;;;;;;;71.30;35.13;;;;;;;-2.53;100.00;99697.66;5092970;28;20222;-70
2021/12/24 07:02:54;;;;;;;75.53;36.60;;;;;;;-2.48;100.00;99702.78;5092832;28;20191;-70
2021/12/24 07:05:21;;;;;;;83.60;39.53;;;;;;;-2.44;100.00;99695.38;5092757;28;20192;-70
2021/12/24 07:07:48;;;;;;;92.50;44.53;;;;;;;-2.37;100.00;99691.38;5092864;28;20214;-70
2021/12/24 07:10:15;;;;;;;97.53;42.23;;;;;;;-2.35;100.00;99695.63;5092653;28;20220;-69
2021/12/24 07:12:43;;;;;;;131.07;52.40;;;;;;;-2.39;100.00;99683.78;5092897;28;20211;-69
2021/12/24 07:15:10;;;;;;;143.00;54.07;;;;;;;-2.32;100.00;99700.72;5092811;28;20203;-69
2021/12/24 07:17:39;;;;;;;110.93;49.20;;;;;;;-2.29;100.00;99693.25;5092686;28;20210;-69
2021/12/24 07:20:07;;;;;;;84.27;41.17;;;;;;;-2.26;100.00;99685.81;5084571;28;20306;-70
2021/12/24 07:22:35;;;;;;;77.97;40.43;;;;;;;-2.17;100.00;99686.06;5091777;28;20208;-69
2021/12/24 07:25:04;;;;;;;90.10;40.37;;;;;;;-2.10;100.00;99681.19;5092480;28;20210;-70
2021/12/24 07:27:31;;;;;;;89.17;36.83;;;;;;;-2.05;100.00;99684.63;5077710;28;20203;-70
2021/12/24 07:29:58;;;;;;;77.47;37.10;;;;;;;-1.97;100.00;99681.50;5092501;28;20206;-70
2021/12/24 07:32:24;;;;;;;84.30;36.17;;;;;;;-1.91;100.00;99673.28;5092722;28;20693;-71
2021/12/24 07:34:53;;;;;;;78.77;36.33;;;;;;;-1.84;100.00;99680.16;5092466;28;20675;-69
2021/12/24 07:37:20;;;;;;;68.27;34.10;;;;;;;-1.77;100.00;99671.91;5092511;28;20199;-70
2021/12/24 07:39:46;;;;;;;70.10;35.73;;;;;;;-1.74;100.00;99666.97;5092299;28;20199;-70
2021/12/24 07:42:13;;;;;;;71.67;34.40;;;;;;;-1.70;100.00;99698.88;5092391;28;20203;-70
2021/12/24 07:44:40;;;;;;;60.60;31.53;;;;;;;-1.67;100.00;99696.44;5092418;28;20203;-70
2021/12/24 07:47:15;;;;;;;68.67;35.07;;;;;;;-1.64;100.00;99699.03;5092215;28;20207;-70
2021/12/24 07:49:44;;;;;;;58.97;32.23;;;;;;;-1.59;100.00;99702.50;5092234;28;20587;-70
2021/12/24 07:52:14;;;;;;;58.60;31.77;;;;;;;-1.53;100.00;99680.03;5092180;28;20238;-70
2021/12/24 07:54:43;;;;;;;63.73;32.37;;;;;;;-1.48;100.00;99683.47;5092129;28;20267;-70
2021/12/24 07:57:12;;;;;;;57.30;30.17;;;;;;;-1.60;100.00;99661.44;5092025;28;20210;-70
2021/12/24 07:59:39;;;;;;;59.03;28.23;;;;;;;-1.37;100.00;99692.13;5092200;28;20203;-70
2021/12/24 08:02:11;;;;;;;39.97;24.50;;;;;;;-1.25;100.00;99689.00;5092028;28;20695;-71
2021/12/24 08:04:39;;;;;;;36.47;20.27;;;;;;;-1.21;100.00;99683.22;5092160;28;20207;-71
2021/12/24 08:07:06;;;;;;;28.57;17.67;;;;;;;-1.18;100.00;99684.16;5091936;28;20210;-71
2021/12/24 08:09:37;;;;;;;28.23;17.43;;;;;;;-1.07;100.00;99679.34;5091841;28;20203;-71
2021/12/24 08:12:05;;;;;;;32.60;18.90;;;;;;;-0.98;100.00;99661.91;5091966;28;20204;-71
2021/12/24 08:14:32;;;;;;;32.10;17.30;;;;;;;-0.89;100.00;99651.16;5092054;28;20591;-72
2021/12/24 08:16:59;;;;;;;28.00;17.60;;;;;;;-0.78;100.00;99669.84;5091954;28;20294;-72
2021/12/24 08:19:26;;;;;;;29.50;17.73;;;;;;;-0.66;100.00;99667.56;5091803;28;20213;-72
2021/12/24 08:21:53;;;;;;;23.50;16.17;;;;;;;-0.59;100.00;99657.66;5091867;28;20219;-72
2021/12/24 08:24:20;;;;;;;34.60;17.20;;;;;;;-0.48;100.00;99647.75;5091843;28;20214;-73
2021/12/24 08:26:48;;;;;;;30.20;16.80;;;;;;;-0.42;100.00;99650.38;5091634;28;20202;-70
2021/12/24 08:29:16;;;;;;;26.03;16.60;;;;;;;-0.45;100.00;99622.63;5090980;28;20222;-73
2021/12/24 08:31:42;;;;;;;29.03;15.90;;;;;;;-0.26;100.00;99628.84;5091851;28;20690;-73
2021/12/24 08:34:10;;;;;;;30.40;16.83;;;;;;;-0.14;100.00;99627.38;5093402;28;20587;-73
2021/12/24 08:36:38;;;;;;;25.03;15.00;;;;;;;-0.14;100.00;99619.81;5095657;28;20282;-73
2021/12/24 08:39:06;;;;;;;22.77;14.60;;;;;;;-0.01;100.00;99606.56;5095782;28;20694;-72
2021/12/24 08:41:33;;;;;;;25.70;15.53;;;;;;;0.10;100.00;99606.72;5095145;28;20211;-72
2021/12/24 08:44:02;;;;;;;20.60;13.70;;;;;;;0.22;100.00;99626.22;5094970;28;20195;-72
2021/12/24 08:46:29;;;;;;;22.60;15.07;;;;;;;0.28;100.00;99623.78;5094796;28;20210;-72
2021/12/24 08:48:56;;;;;;;25.37;15.27;;;;;;;0.33;100.00;99627.22;5091568;28;20710;-72
2021/12/24 08:51:23;;;;;;;22.33;15.10;;;;;;;0.46;100.00;99614.81;5094637;28;20282;-72
2021/12/24 08:53:51;;;;;;;29.10;15.57;;;;;;;0.59;99.06;99612.44;5094651;28;20202;-72
2021/12/24 08:56:18;;;;;;;27.97;15.60;;;;;;;0.68;98.07;99626.00;5094638;28;20195;-72
2021/12/24 08:58:45;;;;;;;30.83;15.87;;;;;;;0.62;97.98;99594.81;5094434;28;20192;-72
2021/12/24 09:01:13;;;;;;;25.53;16.90;;;;;;;0.82;97.51;99609.38;5094632;28;20215;-73
2021/12/24 09:03:41;;;;;;;32.27;17.87;;;;;;;0.89;97.16;99613.69;5093145;28;20218;-72
2021/12/24 09:06:07;;;;;;;25.33;15.63;;;;;;;0.97;97.28;99613.78;5094658;28;20356;-73
2021/12/24 09:08:35;;;;;;;28.33;17.77;;;;;;;1.05;98.78;99613.03;5094588;28;20225;-73
2021/12/24 09:11:02;;;;;;;30.43;17.20;;;;;;;1.16;96.65;99614.81;5094044;28;20304;-73
2021/12/24 09:13:30;;;;;;;32.10;18.73;;;;;;;1.27;95.52;99604.00;5094433;28;20217;-73
2021/12/24 09:15:57;;;;;;;32.57;18.90;;;;;;;1.36;93.66;99593.13;5094685;28;20556;-72
2021/12/24 09:18:25;;;;;;;39.30;20.93;;;;;;;1.43;93.41;99598.25;5091673;28;20205;-72
2021/12/24 09:20:54;;;;;;;31.63;19.93;;;;;;;1.52;93.18;99584.84;5093109;28;20225;-73
2021/12/24 09:23:22;;;;;;;28.33;18.13;;;;;;;1.55;90.97;99562.16;5093236;28;20199;-73
2021/12/24 09:25:49;;;;;;;33.97;19.77;;;;;;;1.66;91.20;99563.09;5092585;28;20199;-73
2021/12/24 09:28:16;;;;;;;31.67;18.30;;;;;;;1.67;90.93;99549.63;5092370;28;20214;-72
2021/12/24 09:30:43;;;;;;;34.87;18.80;;;;;;;1.84;91.07;99547.22;5093636;28;20667;-72
2021/12/24 09:33:10;;;;;;;36.57;19.80;;;;;;;1.86;89.25;99541.34;5093872;28;20210;-73
2021/12/24 09:35:38;;;;;;;35.17;19.47;;;;;;;1.96;89.16;99527.94;5093162;28;20659;-73
2021/12/24 09:38:06;;;;;;;37.20;18.57;;;;;;;2.07;89.70;99521.25;5093734;28;20196;-73
2021/12/24 09:40:35;;;;;;;40.67;21.10;;;;;;;2.27;87.59;99523.03;5092282;28;20578;-73
2021/12/24 09:43:03;;;;;;;30.07;19.57;;;;;;;2.27;86.40;99515.44;5093421;28;20200;-73
2021/12/24 09:45:30;;;;;;;29.50;18.93;;;;;;;2.31;86.24;99505.34;5091063;28;20568;-73
2021/12/24 09:47:57;;;;;;;37.87;21.43;;;;;;;2.42;87.66;99520.59;5083835;28;20191;-72
2021/12/24 09:50:26;;;;;;;35.53;21.33;;;;;;;2.37;88.94;99504.53;5084116;28;20675;-72
2021/12/24 09:52:54;;;;;;;36.63;19.03;;;;;;;2.29;88.05;99494.41;5091121;28;20732;-73
2021/12/24 09:55:23;;;;;;;30.33;19.07;;;;;;;2.45;87.36;99508.81;5091429;28;20203;-73
2021/12/24 09:57:51;;;;;;;29.13;18.57;;;;;;;2.47;87.15;99496.13;5092390;28;20639;-72
2021/12/24 10:00:19;;;;;;;28.30;17.77;;;;;;;2.55;87.88;99504.63;5092366;28;20203;-72
2021/12/24 10:02:51;;;;;;;31.93;19.57;;;;;;;2.61;85.95;99486.91;5089174;28;20245;-72
2021/12/24 10:05:34;;;;;;;38.77;19.80;;;;;;;2.67;84.99;99483.56;5091809;28;20202;-72
2021/12/24 10:08:08;;;;;;;44.63;21.13;;;;;;;2.71;84.77;99481.03;5090307;28;20606;-72
2021/12/24 10:10:37;;;;;;;37.90;19.70;;;;;;;2.76;84.80;99479.34;5088935;28;20736;-71
2021/12/24 10:13:31;;;;;;;31.47;18.50;;;;;;;2.76;82.99;99468.38;5091457;28;20679;-72
2021/12/24 10:16:01;;;;;;;28.43;18.37;;;;;;;2.82;82.63;99466.72;5090144;28;20208;-72
2021/12/24 10:18:37;;;;;;;28.53;16.97;;;;;;;2.79;84.13;99448.97;5091552;28;20203;-71
2021/12/24 10:21:12;;;;;;;35.27;18.60;;;;;;;2.95;83.84;99465.03;5090205;28;20238;-72
2021/12/24 10:23:46;;;;;;;35.70;20.50;;;;;;;3.01;82.31;99467.56;5092279;28;20207;-71
2021/12/24 10:26:16;;;;;;;35.40;21.10;;;;;;;3.03;83.49;99459.16;5090497;28;20198;-72
2021/12/24 10:28:55;;;;;;;38.60;21.20;;;;;;;3.16;83.08;99460.84;5090986;28;20203;-71
2021/12/24 10:31:23;;;;;;;30.67;18.33;;;;;;;3.24;82.14;99447.31;5091493;28;20210;-72
2021/12/24 10:34:18;;;;;;;34.73;20.20;;;;;;;3.30;82.74;99447.31;5091409;28;20200;-72
2021/12/24 10:37:01;;;;;;;39.73;22.30;;;;;;;3.39;83.05;99453.25;5089767;28;20199;-71
2021/12/24 10:39:33;;;;;;;40.17;22.00;;;;;;;3.45;82.76;99448.19;5091858;28;20203;-72
2021/12/24 10:42:03;;;;;;;44.30;21.23;;;;;;;3.42;82.54;99443.13;5090557;28;20706;-72
2021/12/24 10:44:32;;;;;;;34.93;20.87;;;;;;;3.42;83.55;99422.00;5090340;28;20207;-72
2021/12/24 10:47:02;;;;;;;36.90;21.80;;;;;;;3.53;83.38;99425.34;5091021;28;20675;-72
2021/12/24 10:49:57;;;;;;;43.15;25.85;;;;;;;3.63;82.69;99427.03;5091709;28;20423;-71
2021/12/24 10:55:19;;;;;;;37.93;21.60;;;;;;;3.72;81.39;99411.78;5087844;28;20213;-72
2021/12/24 10:57:49;;;;;;;51.00;28.60;;;;;;;3.76;80.23;99418.53;5092227;28;20268;-72
2021/12/24 11:00:23;;;;;;;72.77;35.30;;;;;;;3.79;79.89;99417.69;5091945;28;20195;-71
2021/12/24 11:02:53;;;;;;;38.57;22.33;;;;;;;3.78;79.54;99413.47;5092153;28;20222;-72
2021/12/24 11:05:30;;;;;;;114.83;41.70;;;;;;;3.73;79.64;99418.56;5091875;28;20282;-72
2021/12/24 11:07:58;;;;;;;72.90;31.10;;;;;;;3.78;80.35;99416.84;5092071;28;20679;-72
2021/12/24 11:10:28;;;;;;;32.80;20.13;;;;;;;3.84;80.10;99405.84;5092039;28;20226;-72
2021/12/24 11:12:57;;;;;;;38.07;22.30;;;;;;;3.89;80.09;99399.91;5091904;28;20203;-72
2021/12/24 11:15:28;;;;;;;73.20;30.50;;;;;;;4.01;81.44;99379.56;5091535;28;20743;-72
2021/12/24 11:17:57;;;;;;;48.80;21.97;;;;;;;4.12;80.65;99377.84;5091625;28;20282;-72
2021/12/24 11:20:25;;;;;;;34.47;20.17;;;;;;;4.15;79.75;99371.91;5091527;28;20218;-72
2021/12/24 11:22:56;;;;;;;38.20;21.30;;;;;;;4.23;79.51;99383.69;5091709;28;20218;-72
2021/12/24 11:25:27;;;;;;;33.93;20.00;;;;;;;4.30;79.68;99376.06;5091194;28;20203;-72
2021/12/24 11:27:54;;;;;;;41.17;19.50;;;;;;;4.35;78.19;99381.94;5090584;28;20200;-72
2021/12/24 11:30:22;;;;;;;42.23;22.33;;;;;;;4.43;78.04;99377.66;5091768;28;20227;-72
2021/12/24 11:32:50;;;;;;;35.37;20.37;;;;;;;4.45;77.90;99368.34;5091557;28;20195;-72
2021/12/24 11:35:18;;;;;;;40.80;22.50;;;;;;;4.51;78.36;99370.84;5092072;28;20663;-72
2021/12/24 11:37:47;;;;;;;32.67;20.87;;;;;;;4.58;77.03;99362.34;5090738;28;20199;-72
2021/12/24 11:40:16;;;;;;;39.43;20.20;;;;;;;4.61;76.71;99357.25;5091059;28;20210;-72
2021/12/24 11:42:47;;;;;;;33.43;20.83;;;;;;;4.65;76.61;99353.84;5089951;28;20223;-72
2021/12/24 11:45:14;;;;;;;34.27;20.77;;;;;;;4.73;77.46;99345.31;5091116;28;20199;-72
2021/12/24 11:47:41;;;;;;;42.00;22.67;;;;;;;4.81;76.65;99340.19;5091610;28;20207;-71
2021/12/24 11:50:09;;;;;;;37.57;22.03;;;;;;;4.76;76.29;99324.97;5091329;28;20195;-72
2021/12/24 11:52:36;;;;;;;38.40;22.17;;;;;;;4.88;77.17;99325.72;5091365;28;20552;-71
2021/12/24 11:55:04;;;;;;;32.17;21.37;;;;;;;4.91;77.02;99321.44;5091332;28;20191;-72
2021/12/24 11:57:31;;;;;;;40.40;22.03;;;;;;;5.00;77.55;99311.22;5091224;28;20211;-73
2021/12/24 12:00:11;;;;;;;32.53;20.40;;;;;;;4.96;76.50;99314.63;5090970;28;20199;-72
2021/12/24 12:02:45;;;;;;;37.93;21.83;;;;;;;5.06;76.29;99301.00;5091123;28;20214;-72
2021/12/24 12:05:18;;;;;;;36.70;23.67;;;;;;;5.13;75.32;99317.03;5088062;28;20621;-72
2021/12/24 12:07:45;;;;;;;47.00;25.30;;;;;;;5.21;75.92;99303.38;5090943;28;20714;-72
2021/12/24 12:10:13;;;;;;;55.47;27.23;;;;;;;5.26;75.46;99304.19;5090545;28;20223;-72
2021/12/24 12:12:42;;;;;;;40.87;24.47;;;;;;;5.28;75.05;99292.28;5089869;28;20206;-73
2021/12/24 12:15:28;;;;;;;50.33;26.60;;;;;;;5.35;75.92;99292.22;5086439;28;20586;-72
2021/12/24 12:17:58;;;;;;;47.23;26.40;;;;;;;5.41;75.96;99297.25;5088807;28;20256;-72
2021/12/24 12:20:45;;;;;;;44.80;25.33;;;;;;;5.37;74.43;99285.41;5090727;28;20198;-72
2021/12/24 12:23:54;;;;;;;41.43;24.40;;;;;;;5.46;74.31;99286.16;5090956;28;20246;-72
2021/12/24 12:26:41;;;;;;;45.47;25.43;;;;;;;5.54;73.76;99291.16;5091036;28;20685;-72
2021/12/24 12:29:25;;;;;;;38.87;25.47;;;;;;;5.52;73.95;99281.03;5090799;28;20671;-72
2021/12/24 12:31:57;;;;;;;42.37;25.50;;;;;;;5.56;74.22;99297.06;5087328;28;20197;-72
2021/12/24 12:34:50;;;;;;;46.23;26.73;;;;;;;5.64;74.19;99290.19;5090739;28;20195;-72
2021/12/24 12:37:18;;;;;;;49.60;26.73;;;;;;;5.77;74.11;99291.72;5089340;28;20330;-72
2021/12/24 12:39:47;;;;;;;45.23;28.00;;;;;;;5.76;74.13;99297.66;5089656;28;20207;-72
2021/12/24 12:42:17;;;;;;;53.60;28.87;;;;;;;5.79;72.97;99295.06;5090367;28;20230;-72
2021/12/24 12:44:47;;;;;;;45.77;27.33;;;;;;;5.81;73.04;99283.19;5090799;28;20261;-73
2021/12/24 12:47:18;;;;;;;56.13;28.43;;;;;;;5.87;73.52;99288.25;5090797;28;20191;-72